Main page
METAR-TAF:

METAR-TAF

Airports :

Vladivostok International Airport

Vladivostok, Russia

latitude: 43-07N, longitude: 131-56E, elevation: 184 m

Current weather observation

The report was made 45 minutes ago, at 10:30 UTC
Wind 4 kt from the West
Temperature -11°C
Humidity 56%
Pressure 1014 hPa
Visibility 10 km or more

METAR: UHWW 191030Z 26002MPS 9999 NSC M11/M18 Q1014 R25L/0///70 NOSIG RMK QFE760

Time: 21:15 (11:15 UTC)

Forecast

The report was made 3 hours and 15 minutes ago, at 08:00 UTC
Forecast valid from 19 at 09 UTC to 20 at 09 UTC
Wind 6 kt from the North/Northwest
Visibility 10 km or more
Temporary
from 19 at 09 UTC to 19 at 14 UTC
Visibility: 3500 m
Broken clouds at a height of 2500 ft, Cumulonimbus.
light snow showers, haze

TAF: UHWW 190800Z 1909/2009 34003MPS 9999 NSC TEMPO 1909/1914 3500 -SHSN HZ BKN025CB

Weather observations and forecasts of more than 4000 airports (METAR and TAF reports).

The available stations are represented by yellow and red dots on the map.

Hover mouse over dot to see the name of the station.

Then click to see weather observations and forecasts.

To change the map : click on the green buttons with a black cross to zoom in, on the green button with a dash to zoom out, or on the green arrows for adjacent maps.


METAR-TAF: